Terminal Aerodrome Forecast
Issued by NWS St Louis, MO

Home | Current Version | Previous Version | Text Only | Print | Product List | Glossary On
Versions: 1 2 3 4 5 6 7 8 9 10 11 12 13 14 15 16 17 18 19 20 21 22 23 24 25
051
FTUS43 KLSX 030520
TAFCOU
TAF
KCOU 030520Z 0306/0406 VRB04KT 1/4SM FG VV001
     FM031400 30005KT 5SM BR BKN010
     FM031600 30008KT P6SM BKN035
     FM040100 25006KT P6SM SCT050=

USA.gov is the U.S. government's official web portal to all federal, state and local government web resources and services.